sensor_id;sensor_type;location;lat;lon;timestamp;P1;durP1;ratioP1;P2;durP2;ratioP2
52320;SDS011;38261;54.090;13.382;2023-02-16T00:00:14;47.27;;;22.60;;
52320;SDS011;38261;54.090;13.382;2023-02-16T00:01:36;44.47;;;21.00;;
52320;SDS011;38261;54.090;13.382;2023-02-16T00:02:58;47.03;;;22.53;;
52320;SDS011;38261;54.090;13.382;2023-02-16T00:04:21;60.60;;;20.90;;
52320;SDS011;38261;54.090;13.382;2023-02-16T00:05:46;49.70;;;22.00;;
52320;SDS011;38261;54.090;13.382;2023-02-16T00:07:08;44.50;;;19.80;;
52320;SDS011;38261;54.090;13.382;2023-02-16T00:08:30;48.63;;;21.30;;
52320;SDS011;38261;54.090;13.382;2023-02-16T00:09:52;42.00;;;20.80;;
52320;SDS011;38261;54.090;13.382;2023-02-16T00:11:19;47.30;;;21.63;;
52320;SDS011;38261;54.090;13.382;2023-02-16T00:13:27;41.33;;;19.33;;
52320;SDS011;38261;54.090;13.382;2023-02-16T00:15:17;45.93;;;19.90;;
52320;SDS011;38261;54.090;13.382;2023-02-16T00:16:40;37.13;;;18.40;;
52320;SDS011;38261;54.090;13.382;2023-02-16T00:18:03;41.20;;;19.47;;
52320;SDS011;38261;54.090;13.382;2023-02-16T00:19:39;42.63;;;19.43;;
52320;SDS011;38261;54.090;13.382;2023-02-16T00:21:02;45.13;;;21.13;;
52320;SDS011;38261;54.090;13.382;2023-02-16T00:22:25;45.97;;;19.87;;
52320;SDS011;38261;54.090;13.382;2023-02-16T00:23:47;46.33;;;20.00;;
52320;SDS011;38261;54.090;13.382;2023-02-16T00:25:09;36.07;;;17.63;;
52320;SDS011;38261;54.090;13.382;2023-02-16T00:26:31;41.67;;;20.03;;
52320;SDS011;38261;54.090;13.382;2023-02-16T00:27:55;43.87;;;20.40;;
52320;SDS011;38261;54.090;13.382;2023-02-16T00:30:43;40.63;;;19.03;;
52320;SDS011;38261;54.090;13.382;2023-02-16T00:32:05;40.40;;;20.60;;
52320;SDS011;38261;54.090;13.382;2023-02-16T00:33:28;40.67;;;19.90;;
52320;SDS011;38261;54.090;13.382;2023-02-16T00:34:50;46.60;;;20.80;;
52320;SDS011;38261;54.090;13.382;2023-02-16T00:36:12;40.33;;;19.63;;
52320;SDS011;38261;54.090;13.382;2023-02-16T00:37:34;44.53;;;19.70;;
52320;SDS011;38261;54.090;13.382;2023-02-16T00:38:56;39.77;;;19.70;;
52320;SDS011;38261;54.090;13.382;2023-02-16T00:40:18;39.27;;;19.47;;
52320;SDS011;38261;54.090;13.382;2023-02-16T00:41:40;37.47;;;18.80;;
52320;SDS011;38261;54.090;13.382;2023-02-16T00:43:18;38.80;;;18.80;;
52320;SDS011;38261;54.090;13.382;2023-02-16T00:44:49;45.07;;;20.33;;
52320;SDS011;38261;54.090;13.382;2023-02-16T00:46:15;42.60;;;19.93;;
52320;SDS011;38261;54.090;13.382;2023-02-16T00:47:38;41.60;;;20.13;;
52320;SDS011;38261;54.090;13.382;2023-02-16T00:49:02;39.73;;;19.73;;
52320;SDS011;38261;54.090;13.382;2023-02-16T00:50:29;46.57;;;18.83;;
52320;SDS011;38261;54.090;13.382;2023-02-16T00:51:52;38.73;;;18.80;;
52320;SDS011;38261;54.090;13.382;2023-02-16T00:53:15;42.23;;;19.17;;
52320;SDS011;38261;54.090;13.382;2023-02-16T00:54:37;45.20;;;20.53;;
52320;SDS011;38261;54.090;13.382;2023-02-16T00:55:59;36.30;;;18.90;;
52320;SDS011;38261;54.090;13.382;2023-02-16T00:57:21;36.80;;;18.33;;
52320;SDS011;38261;54.090;13.382;2023-02-16T00:58:44;43.70;;;18.70;;
52320;SDS011;38261;54.090;13.382;2023-02-16T01:00:29;43.03;;;19.73;;
52320;SDS011;38261;54.090;13.382;2023-02-16T01:01:55;34.00;;;18.30;;
52320;SDS011;38261;54.090;13.382;2023-02-16T01:03:19;39.17;;;18.47;;
52320;SDS011;38261;54.090;13.382;2023-02-16T01:04:44;44.07;;;20.00;;
52320;SDS011;38261;54.090;13.382;2023-02-16T01:06:06;40.33;;;19.37;;
52320;SDS011;38261;54.090;13.382;2023-02-16T01:07:47;36.90;;;17.93;;
52320;SDS011;38261;54.090;13.382;2023-02-16T01:09:28;42.53;;;19.20;;
52320;SDS011;38261;54.090;13.382;2023-02-16T01:11:09;45.13;;;19.07;;
52320;SDS011;38261;54.090;13.382;2023-02-16T01:12:31;41.20;;;20.37;;
52320;SDS011;38261;54.090;13.382;2023-02-16T01:13:53;40.17;;;18.70;;
52320;SDS011;38261;54.090;13.382;2023-02-16T01:15:17;38.70;;;19.07;;
52320;SDS011;38261;54.090;13.382;2023-02-16T01:16:43;40.33;;;19.80;;
52320;SDS011;38261;54.090;13.382;2023-02-16T01:18:05;45.73;;;20.43;;
52320;SDS011;38261;54.090;13.382;2023-02-16T01:19:27;41.87;;;19.60;;
52320;SDS011;38261;54.090;13.382;2023-02-16T01:20:49;40.20;;;18.13;;
52320;SDS011;38261;54.090;13.382;2023-02-16T01:22:11;36.63;;;19.60;;
52320;SDS011;38261;54.090;13.382;2023-02-16T01:23:34;48.80;;;21.63;;
52320;SDS011;38261;54.090;13.382;2023-02-16T01:24:56;44.33;;;19.57;;
52320;SDS011;38261;54.090;13.382;2023-02-16T01:26:19;41.33;;;20.37;;
52320;SDS011;38261;54.090;13.382;2023-02-16T01:27:42;39.80;;;19.93;;
52320;SDS011;38261;54.090;13.382;2023-02-16T01:29:05;42.87;;;19.97;;
52320;SDS011;38261;54.090;13.382;2023-02-16T01:30:27;41.97;;;19.53;;
52320;SDS011;38261;54.090;13.382;2023-02-16T01:31:50;43.33;;;21.43;;
52320;SDS011;38261;54.090;13.382;2023-02-16T01:33:12;40.17;;;19.97;;
52320;SDS011;38261;54.090;13.382;2023-02-16T01:34:34;40.83;;;18.80;;
52320;SDS011;38261;54.090;13.382;2023-02-16T01:35:57;40.30;;;18.80;;
52320;SDS011;38261;54.090;13.382;2023-02-16T01:37:19;40.67;;;20.80;;
52320;SDS011;38261;54.090;13.382;2023-02-16T01:38:41;37.60;;;19.20;;
52320;SDS011;38261;54.090;13.382;2023-02-16T01:40:03;36.27;;;19.37;;
52320;SDS011;38261;54.090;13.382;2023-02-16T01:43:06;42.30;;;19.20;;
52320;SDS011;38261;54.090;13.382;2023-02-16T01:44:40;43.47;;;19.77;;
52320;SDS011;38261;54.090;13.382;2023-02-16T01:46:09;38.43;;;18.10;;
52320;SDS011;38261;54.090;13.382;2023-02-16T01:47:48;36.20;;;16.93;;
52320;SDS011;38261;54.090;13.382;2023-02-16T01:49:18;40.03;;;18.67;;
52320;SDS011;38261;54.090;13.382;2023-02-16T01:50:47;41.13;;;18.27;;
52320;SDS011;38261;54.090;13.382;2023-02-16T01:52:36;38.30;;;18.00;;
52320;SDS011;38261;54.090;13.382;2023-02-16T01:55:36;38.97;;;18.80;;
52320;SDS011;38261;54.090;13.382;2023-02-16T01:57:03;38.30;;;18.77;;
52320;SDS011;38261;54.090;13.382;2023-02-16T02:00:10;40.47;;;18.47;;
52320;SDS011;38261;54.090;13.382;2023-02-16T02:03:28;38.53;;;18.43;;
52320;SDS011;38261;54.090;13.382;2023-02-16T02:05:28;36.60;;;16.90;;
52320;SDS011;38261;54.090;13.382;2023-02-16T02:06:58;40.10;;;18.87;;
52320;SDS011;38261;54.090;13.382;2023-02-16T02:08:22;33.70;;;17.40;;
52320;SDS011;38261;54.090;13.382;2023-02-16T02:11:17;37.63;;;17.80;;
52320;SDS011;38261;54.090;13.382;2023-02-16T02:15:15;35.63;;;17.93;;
52320;SDS011;38261;54.090;13.382;2023-02-16T02:16:55;39.77;;;18.87;;
52320;SDS011;38261;54.090;13.382;2023-02-16T02:18:28;37.70;;;18.13;;
52320;SDS011;38261;54.090;13.382;2023-02-16T02:20:11;39.50;;;17.53;;
52320;SDS011;38261;54.090;13.382;2023-02-16T02:26:36;36.70;;;16.93;;
52320;SDS011;38261;54.090;13.382;2023-02-16T02:27:33;34.97;;;16.23;;
52320;SDS011;38261;54.090;13.382;2023-02-16T02:33:01;32.17;;;17.20;;
52320;SDS011;38261;54.090;13.382;2023-02-16T02:34:59;30.47;;;16.10;;
52320;SDS011;38261;54.090;13.382;2023-02-16T02:42:47;37.97;;;17.57;;
52320;SDS011;38261;54.090;13.382;2023-02-16T02:44:30;28.80;;;16.00;;
52320;SDS011;38261;54.090;13.382;2023-02-16T02:46:07;31.70;;;15.70;;
52320;SDS011;38261;54.090;13.382;2023-02-16T02:47:41;32.10;;;16.63;;
52320;SDS011;38261;54.090;13.382;2023-02-16T02:49:05;31.13;;;16.53;;
52320;SDS011;38261;54.090;13.382;2023-02-16T02:51:59;29.63;;;16.43;;
52320;SDS011;38261;54.090;13.382;2023-02-16T02:53:22;34.07;;;15.67;;
52320;SDS011;38261;54.090;13.382;2023-02-16T02:54:44;28.77;;;14.53;;
52320;SDS011;38261;54.090;13.382;2023-02-16T02:56:27;31.37;;;15.77;;
52320;SDS011;38261;54.090;13.382;2023-02-16T02:58:07;29.57;;;14.97;;
52320;SDS011;38261;54.090;13.382;2023-02-16T03:00:12;29.90;;;15.03;;
52320;SDS011;38261;54.090;13.382;2023-02-16T03:01:52;30.67;;;14.83;;
52320;SDS011;38261;54.090;13.382;2023-02-16T03:04:41;33.47;;;15.40;;
52320;SDS011;38261;54.090;13.382;2023-02-16T03:06:15;27.47;;;14.10;;
52320;SDS011;38261;54.090;13.382;2023-02-16T03:07:43;29.70;;;15.30;;
52320;SDS011;38261;54.090;13.382;2023-02-16T03:09:10;31.20;;;14.53;;
52320;SDS011;38261;54.090;13.382;2023-02-16T03:10:35;30.30;;;15.60;;
52320;SDS011;38261;54.090;13.382;2023-02-16T03:12:16;28.50;;;13.97;;
52320;SDS011;38261;54.090;13.382;2023-02-16T03:13:58;31.60;;;16.40;;
52320;SDS011;38261;54.090;13.382;2023-02-16T03:15:35;30.90;;;14.97;;
52320;SDS011;38261;54.090;13.382;2023-02-16T03:17:00;27.67;;;14.83;;
52320;SDS011;38261;54.090;13.382;2023-02-16T03:18:44;32.80;;;15.80;;
52320;SDS011;38261;54.090;13.382;2023-02-16T03:20:25;27.97;;;15.00;;
52320;SDS011;38261;54.090;13.382;2023-02-16T03:22:06;31.10;;;13.93;;
52320;SDS011;38261;54.090;13.382;2023-02-16T03:23:47;31.00;;;15.70;;
52320;SDS011;38261;54.090;13.382;2023-02-16T03:25:31;35.20;;;16.17;;
52320;SDS011;38261;54.090;13.382;2023-02-16T03:27:23;30.47;;;16.13;;
52320;SDS011;38261;54.090;13.382;2023-02-16T03:29:07;32.20;;;15.30;;
52320;SDS011;38261;54.090;13.382;2023-02-16T03:30:37;30.77;;;15.47;;
52320;SDS011;38261;54.090;13.382;2023-02-16T03:32:00;28.80;;;15.57;;
52320;SDS011;38261;54.090;13.382;2023-02-16T03:33:23;33.70;;;16.60;;
52320;SDS011;38261;54.090;13.382;2023-02-16T03:34:46;28.93;;;15.73;;
52320;SDS011;38261;54.090;13.382;2023-02-16T03:36:09;30.50;;;15.53;;
52320;SDS011;38261;54.090;13.382;2023-02-16T03:37:32;30.03;;;16.13;;
52320;SDS011;38261;54.090;13.382;2023-02-16T03:38:54;32.90;;;16.73;;
52320;SDS011;38261;54.090;13.382;2023-02-16T03:40:17;32.10;;;16.30;;
52320;SDS011;38261;54.090;13.382;2023-02-16T03:41:50;29.20;;;15.80;;
52320;SDS011;38261;54.090;13.382;2023-02-16T03:43:14;33.70;;;17.50;;
52320;SDS011;38261;54.090;13.382;2023-02-16T03:44:36;33.47;;;16.47;;
52320;SDS011;38261;54.090;13.382;2023-02-16T03:45:59;33.03;;;17.57;;
52320;SDS011;38261;54.090;13.382;2023-02-16T03:47:21;32.27;;;16.40;;
52320;SDS011;38261;54.090;13.382;2023-02-16T03:48:43;30.70;;;16.00;;
52320;SDS011;38261;54.090;13.382;2023-02-16T03:50:05;30.10;;;16.10;;
52320;SDS011;38261;54.090;13.382;2023-02-16T03:51:28;25.97;;;14.83;;
52320;SDS011;38261;54.090;13.382;2023-02-16T03:52:50;29.90;;;16.00;;
52320;SDS011;38261;54.090;13.382;2023-02-16T03:54:12;28.70;;;15.17;;
52320;SDS011;38261;54.090;13.382;2023-02-16T03:55:38;32.40;;;16.30;;
52320;SDS011;38261;54.090;13.382;2023-02-16T03:57:05;31.53;;;16.47;;
52320;SDS011;38261;54.090;13.382;2023-02-16T03:58:27;31.43;;;15.63;;
52320;SDS011;38261;54.090;13.382;2023-02-16T03:59:49;26.97;;;14.63;;
52320;SDS011;38261;54.090;13.382;2023-02-16T04:01:12;32.53;;;16.80;;
52320;SDS011;38261;54.090;13.382;2023-02-16T04:02:34;32.90;;;15.90;;
52320;SDS011;38261;54.090;13.382;2023-02-16T04:03:56;34.43;;;16.20;;
52320;SDS011;38261;54.090;13.382;2023-02-16T04:05:18;31.60;;;16.20;;
52320;SDS011;38261;54.090;13.382;2023-02-16T04:06:41;34.30;;;17.23;;
52320;SDS011;38261;54.090;13.382;2023-02-16T04:08:03;32.07;;;16.97;;
52320;SDS011;38261;54.090;13.382;2023-02-16T04:09:26;31.80;;;17.33;;
52320;SDS011;38261;54.090;13.382;2023-02-16T04:10:48;32.17;;;16.57;;
52320;SDS011;38261;54.090;13.382;2023-02-16T04:12:10;32.40;;;17.93;;
52320;SDS011;38261;54.090;13.382;2023-02-16T04:13:51;33.90;;;17.23;;
52320;SDS011;38261;54.090;13.382;2023-02-16T04:15:15;30.27;;;15.93;;
52320;SDS011;38261;54.090;13.382;2023-02-16T04:16:42;32.10;;;16.43;;
52320;SDS011;38261;54.090;13.382;2023-02-16T04:18:04;30.07;;;15.80;;
52320;SDS011;38261;54.090;13.382;2023-02-16T04:19:26;30.27;;;14.67;;
52320;SDS011;38261;54.090;13.382;2023-02-16T04:20:48;28.87;;;15.97;;
52320;SDS011;38261;54.090;13.382;2023-02-16T04:22:10;31.40;;;17.50;;
52320;SDS011;38261;54.090;13.382;2023-02-16T04:23:32;31.43;;;16.70;;
52320;SDS011;38261;54.090;13.382;2023-02-16T04:24:55;31.63;;;17.23;;
52320;SDS011;38261;54.090;13.382;2023-02-16T04:26:17;30.03;;;15.67;;
52320;SDS011;38261;54.090;13.382;2023-02-16T04:27:39;33.20;;;16.10;;
52320;SDS011;38261;54.090;13.382;2023-02-16T04:29:01;36.07;;;17.10;;
52320;SDS011;38261;54.090;13.382;2023-02-16T04:30:25;31.37;;;17.70;;
52320;SDS011;38261;54.090;13.382;2023-02-16T04:31:51;30.17;;;16.20;;
52320;SDS011;38261;54.090;13.382;2023-02-16T04:33:13;31.90;;;15.87;;
52320;SDS011;38261;54.090;13.382;2023-02-16T04:34:35;28.30;;;14.70;;
52320;SDS011;38261;54.090;13.382;2023-02-16T04:35:57;30.17;;;15.80;;
52320;SDS011;38261;54.090;13.382;2023-02-16T04:37:20;32.40;;;16.80;;
52320;SDS011;38261;54.090;13.382;2023-02-16T04:38:42;31.07;;;15.60;;
52320;SDS011;38261;54.090;13.382;2023-02-16T04:40:04;32.20;;;15.63;;
52320;SDS011;38261;54.090;13.382;2023-02-16T04:41:27;31.30;;;15.23;;
52320;SDS011;38261;54.090;13.382;2023-02-16T04:42:49;28.27;;;15.70;;
52320;SDS011;38261;54.090;13.382;2023-02-16T04:44:11;30.53;;;15.30;;
52320;SDS011;38261;54.090;13.382;2023-02-16T04:45:34;31.50;;;15.90;;
52320;SDS011;38261;54.090;13.382;2023-02-16T04:46:56;32.07;;;15.30;;
52320;SDS011;38261;54.090;13.382;2023-02-16T04:48:18;30.40;;;16.90;;
52320;SDS011;38261;54.090;13.382;2023-02-16T04:49:40;37.30;;;16.80;;
52320;SDS011;38261;54.090;13.382;2023-02-16T04:51:03;34.40;;;16.83;;
52320;SDS011;38261;54.090;13.382;2023-02-16T04:52:26;33.20;;;16.70;;
52320;SDS011;38261;54.090;13.382;2023-02-16T04:53:48;29.67;;;16.33;;
52320;SDS011;38261;54.090;13.382;2023-02-16T04:55:10;33.90;;;16.10;;
52320;SDS011;38261;54.090;13.382;2023-02-16T04:56:32;28.17;;;16.07;;
52320;SDS011;38261;54.090;13.382;2023-02-16T04:57:54;30.97;;;16.30;;
52320;SDS011;38261;54.090;13.382;2023-02-16T04:59:17;35.20;;;17.80;;
52320;SDS011;38261;54.090;13.382;2023-02-16T05:00:39;28.63;;;16.07;;
52320;SDS011;38261;54.090;13.382;2023-02-16T05:02:01;33.67;;;17.33;;
52320;SDS011;38261;54.090;13.382;2023-02-16T05:03:23;33.10;;;16.93;;
52320;SDS011;38261;54.090;13.382;2023-02-16T05:04:45;31.90;;;16.80;;
52320;SDS011;38261;54.090;13.382;2023-02-16T05:06:07;30.50;;;15.73;;
52320;SDS011;38261;54.090;13.382;2023-02-16T05:07:29;33.80;;;16.80;;
52320;SDS011;38261;54.090;13.382;2023-02-16T05:08:51;29.20;;;16.87;;
52320;SDS011;38261;54.090;13.382;2023-02-16T05:10:14;31.37;;;16.80;;
52320;SDS011;38261;54.090;13.382;2023-02-16T05:11:36;33.87;;;17.23;;
52320;SDS011;38261;54.090;13.382;2023-02-16T05:13:17;33.00;;;17.40;;
52320;SDS011;38261;54.090;13.382;2023-02-16T05:14:57;34.33;;;16.20;;
52320;SDS011;38261;54.090;13.382;2023-02-16T05:16:20;31.50;;;16.90;;
52320;SDS011;38261;54.090;13.382;2023-02-16T05:17:43;35.97;;;18.07;;
52320;SDS011;38261;54.090;13.382;2023-02-16T05:19:05;35.73;;;17.30;;
52320;SDS011;38261;54.090;13.382;2023-02-16T05:20:28;39.10;;;19.03;;
52320;SDS011;38261;54.090;13.382;2023-02-16T05:22:10;30.20;;;16.20;;
52320;SDS011;38261;54.090;13.382;2023-02-16T05:23:33;36.70;;;19.80;;
52320;SDS011;38261;54.090;13.382;2023-02-16T05:24:55;38.17;;;18.10;;
52320;SDS011;38261;54.090;13.382;2023-02-16T05:26:17;38.17;;;18.10;;
52320;SDS011;38261;54.090;13.382;2023-02-16T05:27:39;35.57;;;17.17;;
52320;SDS011;38261;54.090;13.382;2023-02-16T05:29:01;36.10;;;17.57;;
52320;SDS011;38261;54.090;13.382;2023-02-16T05:30:24;39.73;;;19.80;;
52320;SDS011;38261;54.090;13.382;2023-02-16T05:31:46;40.30;;;18.60;;
52320;SDS011;38261;54.090;13.382;2023-02-16T05:33:08;37.20;;;18.33;;
52320;SDS011;38261;54.090;13.382;2023-02-16T05:34:31;35.87;;;17.90;;
52320;SDS011;38261;54.090;13.382;2023-02-16T05:35:53;38.97;;;19.23;;
52320;SDS011;38261;54.090;13.382;2023-02-16T05:37:15;42.10;;;19.57;;
52320;SDS011;38261;54.090;13.382;2023-02-16T05:38:39;36.00;;;18.13;;
52320;SDS011;38261;54.090;13.382;2023-02-16T05:40:01;37.83;;;19.00;;
52320;SDS011;38261;54.090;13.382;2023-02-16T05:41:23;38.40;;;18.70;;
52320;SDS011;38261;54.090;13.382;2023-02-16T05:42:45;37.07;;;18.37;;
52320;SDS011;38261;54.090;13.382;2023-02-16T05:44:07;38.37;;;18.23;;
52320;SDS011;38261;54.090;13.382;2023-02-16T05:45:30;38.10;;;18.80;;
52320;SDS011;38261;54.090;13.382;2023-02-16T05:46:52;38.40;;;20.10;;
52320;SDS011;38261;54.090;13.382;2023-02-16T05:48:14;40.03;;;19.87;;
52320;SDS011;38261;54.090;13.382;2023-02-16T05:49:37;41.57;;;19.53;;
52320;SDS011;38261;54.090;13.382;2023-02-16T05:50:59;36.67;;;18.70;;
52320;SDS011;38261;54.090;13.382;2023-02-16T05:52:21;37.60;;;19.13;;
52320;SDS011;38261;54.090;13.382;2023-02-16T05:53:43;37.40;;;18.83;;
52320;SDS011;38261;54.090;13.382;2023-02-16T05:55:05;40.63;;;19.00;;
52320;SDS011;38261;54.090;13.382;2023-02-16T05:56:28;41.53;;;19.60;;
52320;SDS011;38261;54.090;13.382;2023-02-16T05:57:50;38.10;;;19.00;;
52320;SDS011;38261;54.090;13.382;2023-02-16T05:59:12;32.33;;;16.87;;
52320;SDS011;38261;54.090;13.382;2023-02-16T06:00:35;45.97;;;21.27;;
52320;SDS011;38261;54.090;13.382;2023-02-16T06:01:58;41.27;;;18.87;;
52320;SDS011;38261;54.090;13.382;2023-02-16T06:03:20;35.97;;;18.27;;
52320;SDS011;38261;54.090;13.382;2023-02-16T06:04:42;41.83;;;20.37;;
52320;SDS011;38261;54.090;13.382;2023-02-16T06:06:05;38.77;;;18.87;;
52320;SDS011;38261;54.090;13.382;2023-02-16T06:07:27;40.97;;;17.97;;
52320;SDS011;38261;54.090;13.382;2023-02-16T06:08:50;32.20;;;17.17;;
52320;SDS011;38261;54.090;13.382;2023-02-16T06:10:12;31.93;;;17.50;;
52320;SDS011;38261;54.090;13.382;2023-02-16T06:11:36;38.90;;;20.17;;
52320;SDS011;38261;54.090;13.382;2023-02-16T06:12:58;41.20;;;18.10;;
52320;SDS011;38261;54.090;13.382;2023-02-16T06:14:20;38.03;;;18.93;;
52320;SDS011;38261;54.090;13.382;2023-02-16T06:15:42;36.00;;;18.27;;
52320;SDS011;38261;54.090;13.382;2023-02-16T06:17:04;37.00;;;19.30;;
52320;SDS011;38261;54.090;13.382;2023-02-16T06:18:26;31.20;;;17.10;;
52320;SDS011;38261;54.090;13.382;2023-02-16T06:19:48;37.83;;;19.63;;
52320;SDS011;38261;54.090;13.382;2023-02-16T06:21:10;39.23;;;20.50;;
52320;SDS011;38261;54.090;13.382;2023-02-16T06:22:32;38.30;;;19.20;;
52320;SDS011;38261;54.090;13.382;2023-02-16T06:23:55;37.10;;;19.30;;
52320;SDS011;38261;54.090;13.382;2023-02-16T06:25:17;41.73;;;19.70;;
52320;SDS011;38261;54.090;13.382;2023-02-16T06:26:40;36.10;;;18.47;;
52320;SDS011;38261;54.090;13.382;2023-02-16T06:28:03;37.57;;;20.10;;
52320;SDS011;38261;54.090;13.382;2023-02-16T06:29:25;38.83;;;19.00;;
52320;SDS011;38261;54.090;13.382;2023-02-16T06:30:47;41.23;;;19.83;;
52320;SDS011;38261;54.090;13.382;2023-02-16T06:32:10;43.30;;;20.73;;
52320;SDS011;38261;54.090;13.382;2023-02-16T06:33:32;45.17;;;22.27;;
52320;SDS011;38261;54.090;13.382;2023-02-16T06:34:54;42.27;;;20.80;;
52320;SDS011;38261;54.090;13.382;2023-02-16T06:36:16;44.43;;;21.27;;
52320;SDS011;38261;54.090;13.382;2023-02-16T06:37:39;39.97;;;20.50;;
52320;SDS011;38261;54.090;13.382;2023-02-16T06:39:01;46.43;;;21.80;;
52320;SDS011;38261;54.090;13.382;2023-02-16T06:40:24;46.27;;;21.27;;
52320;SDS011;38261;54.090;13.382;2023-02-16T06:41:46;42.40;;;21.07;;
52320;SDS011;38261;54.090;13.382;2023-02-16T06:43:08;40.27;;;19.67;;
52320;SDS011;38261;54.090;13.382;2023-02-16T06:44:30;40.70;;;20.33;;
52320;SDS011;38261;54.090;13.382;2023-02-16T06:45:52;40.23;;;20.40;;
52320;SDS011;38261;54.090;13.382;2023-02-16T06:47:15;41.13;;;19.37;;
52320;SDS011;38261;54.090;13.382;2023-02-16T06:48:37;36.73;;;19.60;;
52320;SDS011;38261;54.090;13.382;2023-02-16T06:49:59;37.97;;;21.70;;
52320;SDS011;38261;54.090;13.382;2023-02-16T06:51:21;42.07;;;21.33;;
52320;SDS011;38261;54.090;13.382;2023-02-16T06:52:43;44.20;;;20.97;;
52320;SDS011;38261;54.090;13.382;2023-02-16T06:54:06;40.97;;;20.70;;
52320;SDS011;38261;54.090;13.382;2023-02-16T06:55:28;43.50;;;20.97;;
52320;SDS011;38261;54.090;13.382;2023-02-16T06:56:54;42.50;;;20.90;;
52320;SDS011;38261;54.090;13.382;2023-02-16T06:58:16;46.10;;;22.87;;
52320;SDS011;38261;54.090;13.382;2023-02-16T06:59:38;40.33;;;20.20;;
52320;SDS011;38261;54.090;13.382;2023-02-16T07:01:00;43.73;;;20.37;;
52320;SDS011;38261;54.090;13.382;2023-02-16T07:02:23;40.63;;;21.00;;
52320;SDS011;38261;54.090;13.382;2023-02-16T07:03:45;47.30;;;20.03;;
52320;SDS011;38261;54.090;13.382;2023-02-16T07:05:07;42.13;;;20.80;;
52320;SDS011;38261;54.090;13.382;2023-02-16T07:06:30;42.20;;;19.80;;
52320;SDS011;38261;54.090;13.382;2023-02-16T07:07:52;38.20;;;20.03;;
52320;SDS011;38261;54.090;13.382;2023-02-16T07:09:14;39.93;;;21.00;;
52320;SDS011;38261;54.090;13.382;2023-02-16T07:10:37;42.53;;;22.00;;
52320;SDS011;38261;54.090;13.382;2023-02-16T07:12:10;43.70;;;21.53;;
52320;SDS011;38261;54.090;13.382;2023-02-16T07:13:32;37.90;;;21.37;;
52320;SDS011;38261;54.090;13.382;2023-02-16T07:14:57;46.60;;;21.57;;
52320;SDS011;38261;54.090;13.382;2023-02-16T07:16:19;41.60;;;21.80;;
52320;SDS011;38261;54.090;13.382;2023-02-16T07:17:42;40.40;;;20.80;;
52320;SDS011;38261;54.090;13.382;2023-02-16T07:19:04;39.40;;;20.33;;
52320;SDS011;38261;54.090;13.382;2023-02-16T07:20:27;40.00;;;20.27;;
52320;SDS011;38261;54.090;13.382;2023-02-16T07:21:49;45.73;;;21.80;;
52320;SDS011;38261;54.090;13.382;2023-02-16T07:23:12;43.87;;;21.97;;
52320;SDS011;38261;54.090;13.382;2023-02-16T07:24:34;37.10;;;20.63;;
52320;SDS011;38261;54.090;13.382;2023-02-16T07:25:56;40.03;;;21.07;;
52320;SDS011;38261;54.090;13.382;2023-02-16T07:27:18;50.53;;;23.50;;
52320;SDS011;38261;54.090;13.382;2023-02-16T07:28:40;43.30;;;21.40;;
52320;SDS011;38261;54.090;13.382;2023-02-16T07:30:02;42.00;;;21.60;;
52320;SDS011;38261;54.090;13.382;2023-02-16T07:31:24;42.23;;;19.93;;
52320;SDS011;38261;54.090;13.382;2023-02-16T07:32:47;46.13;;;21.77;;
52320;SDS011;38261;54.090;13.382;2023-02-16T07:34:09;51.10;;;22.43;;
52320;SDS011;38261;54.090;13.382;2023-02-16T07:35:35;47.93;;;22.30;;
52320;SDS011;38261;54.090;13.382;2023-02-16T07:36:57;44.90;;;22.50;;
52320;SDS011;38261;54.090;13.382;2023-02-16T07:38:20;41.60;;;21.30;;
52320;SDS011;38261;54.090;13.382;2023-02-16T07:39:42;45.93;;;22.73;;
52320;SDS011;38261;54.090;13.382;2023-02-16T07:41:04;45.30;;;21.50;;
52320;SDS011;38261;54.090;13.382;2023-02-16T07:42:30;47.10;;;22.97;;
52320;SDS011;38261;54.090;13.382;2023-02-16T07:43:53;44.80;;;22.63;;
52320;SDS011;38261;54.090;13.382;2023-02-16T07:45:15;53.20;;;24.30;;
52320;SDS011;38261;54.090;13.382;2023-02-16T07:46:37;47.07;;;23.73;;
52320;SDS011;38261;54.090;13.382;2023-02-16T07:48:00;45.57;;;24.13;;
52320;SDS011;38261;54.090;13.382;2023-02-16T07:49:22;46.63;;;24.20;;
52320;SDS011;38261;54.090;13.382;2023-02-16T07:50:45;50.57;;;24.70;;
52320;SDS011;38261;54.090;13.382;2023-02-16T07:52:07;46.33;;;26.33;;
52320;SDS011;38261;54.090;13.382;2023-02-16T07:53:29;49.70;;;24.20;;
52320;SDS011;38261;54.090;13.382;2023-02-16T07:54:51;47.63;;;24.40;;
52320;SDS011;38261;54.090;13.382;2023-02-16T07:56:20;52.03;;;24.00;;
52320;SDS011;38261;54.090;13.382;2023-02-16T07:57:43;46.13;;;24.87;;
52320;SDS011;38261;54.090;13.382;2023-02-16T07:59:05;49.57;;;24.63;;
52320;SDS011;38261;54.090;13.382;2023-02-16T08:00:27;53.83;;;25.17;;
52320;SDS011;38261;54.090;13.382;2023-02-16T08:01:49;46.17;;;24.40;;
52320;SDS011;38261;54.090;13.382;2023-02-16T08:03:12;44.93;;;24.50;;
52320;SDS011;38261;54.090;13.382;2023-02-16T08:04:34;49.10;;;24.70;;
52320;SDS011;38261;54.090;13.382;2023-02-16T08:05:58;46.10;;;24.70;;
52320;SDS011;38261;54.090;13.382;2023-02-16T08:07:21;46.73;;;25.20;;
52320;SDS011;38261;54.090;13.382;2023-02-16T08:08:43;52.57;;;25.87;;
52320;SDS011;38261;54.090;13.382;2023-02-16T08:10:06;49.87;;;25.17;;
52320;SDS011;38261;54.090;13.382;2023-02-16T08:11:30;44.87;;;25.37;;
52320;SDS011;38261;54.090;13.382;2023-02-16T08:12:52;54.30;;;28.23;;
52320;SDS011;38261;54.090;13.382;2023-02-16T08:14:14;47.90;;;25.17;;
52320;SDS011;38261;54.090;13.382;2023-02-16T08:15:36;48.50;;;26.47;;
52320;SDS011;38261;54.090;13.382;2023-02-16T08:17:03;45.73;;;24.63;;
52320;SDS011;38261;54.090;13.382;2023-02-16T08:18:25;50.80;;;25.10;;
52320;SDS011;38261;54.090;13.382;2023-02-16T08:19:48;47.10;;;25.63;;
52320;SDS011;38261;54.090;13.382;2023-02-16T08:21:11;51.47;;;26.40;;
52320;SDS011;38261;54.090;13.382;2023-02-16T08:22:34;44.40;;;23.40;;
52320;SDS011;38261;54.090;13.382;2023-02-16T08:23:58;42.33;;;23.40;;
52320;SDS011;38261;54.090;13.382;2023-02-16T08:25:26;50.87;;;26.63;;
52320;SDS011;38261;54.090;13.382;2023-02-16T08:26:48;47.77;;;25.33;;
52320;SDS011;38261;54.090;13.382;2023-02-16T08:28:10;54.60;;;25.00;;
52320;SDS011;38261;54.090;13.382;2023-02-16T08:29:35;43.70;;;23.13;;
52320;SDS011;38261;54.090;13.382;2023-02-16T08:31:01;47.77;;;25.47;;
52320;SDS011;38261;54.090;13.382;2023-02-16T08:32:24;50.50;;;26.30;;
52320;SDS011;38261;54.090;13.382;2023-02-16T08:33:47;43.53;;;24.90;;
52320;SDS011;38261;54.090;13.382;2023-02-16T08:35:09;51.20;;;25.37;;
52320;SDS011;38261;54.090;13.382;2023-02-16T08:36:35;42.60;;;24.17;;
52320;SDS011;38261;54.090;13.382;2023-02-16T08:37:59;46.10;;;24.83;;
52320;SDS011;38261;54.090;13.382;2023-02-16T08:39:23;42.03;;;24.10;;
52320;SDS011;38261;54.090;13.382;2023-02-16T08:40:47;49.53;;;27.37;;